Time;durP1;ratioP1;P1;durP2;ratioP2;P2;SDS_P1;SDS_P2;PMS_P1;PMS_P2;Temp;Humidity;BMP_temperature;BMP_pressure;BME280_temperature;BME280_humidity;BME280_pressure;Samples;Min_cycle;Max_cycle;Signal;HPM_P1;HPM_P2
2023/07/12 00:01:36;;;;;;;0.82;0.80;;;25.60;59.30;;;;;;5070786;28;20029;-80
2023/07/12 00:04:02;;;;;;;1.65;1.45;;;25.60;59.30;;;;;;5054509;28;20043;-83
2023/07/12 00:06:47;;;;;;;1.52;1.23;;;25.60;59.10;;;;;;5070747;28;20028;-82
2023/07/12 00:09:14;;;;;;;0.50;0.50;;;25.60;59.30;;;;;;5072320;28;20485;-80
2023/07/12 00:11:41;;;;;;;2.42;0.85;;;25.50;60.30;;;;;;5070793;28;20485;-80
2023/07/12 00:14:07;;;;;;;2.47;1.75;;;25.40;59.60;;;;;;5071139;28;20090;-83
2023/07/12 00:16:39;;;;;;;1.60;1.15;;;25.30;59.80;;;;;;5055912;28;20454;-83
2023/07/12 00:19:06;;;;;;;0.88;0.50;;;25.30;59.70;;;;;;5074790;28;20115;-82
2023/07/12 00:21:33;;;;;;;1.75;1.38;;;25.30;59.80;;;;;;5074164;28;20025;-83
2023/07/12 00:24:01;;;;;;;0.93;0.70;;;25.20;59.40;;;;;;5074789;28;20047;-80
2023/07/12 00:26:46;;;;;;;1.27;0.88;;;25.20;59.90;;;;;;5057272;28;20048;-80
2023/07/12 00:29:12;;;;;;;1.48;1.10;;;25.20;59.80;;;;;;5075911;28;20417;-80
2023/07/12 00:31:39;;;;;;;1.08;0.90;;;25.20;60.00;;;;;;5073873;28;20029;-82
2023/07/12 00:34:05;;;;;;;2.00;1.55;;;25.10;60.20;;;;;;5075820;28;20040;-80
2023/07/12 00:36:33;;;;;;;1.42;1.13;;;25.10;60.30;;;;;;5057396;28;20482;-80
2023/07/12 00:39:00;;;;;;;2.45;2.00;;;25.10;60.10;;;;;;5074312;28;20047;-79
2023/07/12 00:42:06;;;;;;;1.08;0.90;;;25.10;60.20;;;;;;5056769;28;20107;-82
2023/07/12 00:44:55;;;;;;;2.88;1.85;;;25.10;60.00;;;;;;5074555;28;20056;-82
2023/07/12 00:47:21;;;;;;;3.20;0.75;;;25.10;60.20;;;;;;5057092;28;20029;-81
2023/07/12 00:49:49;;;;;;;1.45;1.00;;;25.00;60.40;;;;;;5074262;28;20087;-81
2023/07/12 00:52:18;;;;;;;0.65;0.60;;;25.00;59.80;;;;;;5073689;28;20036;-79
2023/07/12 00:55:03;;;;;;;1.52;0.90;;;24.90;60.40;;;;;;5057448;28;20033;-82
2023/07/12 00:57:32;;;;;;;0.85;0.70;;;24.80;60.00;;;;;;5073756;28;20040;-79
2023/07/12 01:00:18;;;;;;;1.15;0.80;;;24.90;60.70;;;;;;5074157;28;20111;-83
2023/07/12 01:02:46;;;;;;;0.88;0.82;;;24.90;60.80;;;;;;5075352;28;20495;-82
2023/07/12 01:05:14;;;;;;;2.38;1.77;;;24.70;60.80;;;;;;5057007;28;20119;-83
2023/07/12 01:07:44;;;;;;;1.88;0.95;;;24.70;61.00;;;;;;5073977;28;20082;-80
2023/07/12 01:10:10;;;;;;;1.15;0.70;;;24.60;60.80;;;;;;5056570;28;20033;-79
2023/07/12 01:12:37;;;;;;;2.05;1.45;;;24.60;61.00;;;;;;5073645;28;20035;-81
2023/07/12 01:15:05;;;;;;;0.47;0.45;;;24.60;60.90;;;;;;5074642;28;20447;-82
2023/07/12 01:17:31;;;;;;;1.70;1.13;;;24.50;60.90;;;;;;5073480;28;20041;-82
2023/07/12 01:19:57;;;;;;;1.08;0.98;;;24.50;61.20;;;;;;5056936;28;20029;-79
2023/07/12 01:22:23;;;;;;;1.38;0.93;;;24.50;61.00;;;;;;5056295;28;20028;-82
2023/07/12 01:24:49;;;;;;;0.40;0.40;;;24.50;61.20;;;;;;5073481;28;20037;-81
2023/07/12 01:27:37;;;;;;;1.02;0.85;;;24.50;61.30;;;;;;5072339;28;20056;-81
2023/07/12 01:30:04;;;;;;;1.63;1.25;;;24.50;61.00;;;;;;5056747;28;20037;-82
2023/07/12 01:32:31;;;;;;;1.02;0.90;;;24.50;61.20;;;;;;5056452;28;20037;-80
2023/07/12 01:34:57;;;;;;;7.30;0.75;;;24.50;61.30;;;;;;5056658;28;20396;-79
2023/07/12 01:37:23;;;;;;;1.45;1.00;;;24.40;61.90;;;;;;5074134;28;20531;-80
2023/07/12 01:39:49;;;;;;;1.23;0.70;;;24.30;62.20;;;;;;5074614;28;20389;-80
2023/07/12 01:42:15;;;;;;;1.70;1.30;;;24.30;61.90;;;;;;5072774;28;20047;-82
2023/07/12 01:44:41;;;;;;;0.80;0.60;;;24.40;62.00;;;;;;5073406;28;20033;-81
2023/07/12 01:47:07;;;;;;;2.20;0.95;;;24.30;61.90;;;;;;5055632;28;20036;-80
2023/07/12 01:49:34;;;;;;;2.15;1.52;;;24.30;61.80;;;;;;5073172;28;20417;-81
2023/07/12 01:52:00;;;;;;;1.63;1.38;;;24.30;61.90;;;;;;5072421;28;20035;-82
2023/07/12 01:54:26;;;;;;;1.25;0.98;;;24.30;61.90;;;;;;5072861;28;20032;-80
2023/07/12 01:56:52;;;;;;;0.65;0.52;;;24.20;61.90;;;;;;5072313;28;20040;-82
2023/07/12 01:59:18;;;;;;;0.75;0.63;;;24.20;61.90;;;;;;5073154;28;20370;-82
2023/07/12 02:01:44;;;;;;;1.05;0.68;;;24.20;62.00;;;;;;5072402;28;20045;-82
2023/07/12 02:04:10;;;;;;;2.03;0.95;;;24.20;62.00;;;;;;5074146;28;20025;-82
2023/07/12 02:06:36;;;;;;;1.55;0.93;;;24.20;61.80;;;;;;5055635;28;20086;-79
2023/07/12 02:09:03;;;;;;;2.33;1.40;;;24.20;61.80;;;;;;5072546;28;20078;-82
2023/07/12 02:11:29;;;;;;;0.88;0.60;;;24.10;61.90;;;;;;5072169;28;20035;-82
2023/07/12 02:13:55;;;;;;;0.88;0.60;;;24.10;62.20;;;;;;5073990;28;20024;-82
2023/07/12 02:16:21;;;;;;;2.55;0.82;;;24.10;61.90;;;;;;5055284;28;20393;-83
2023/07/12 02:18:47;;;;;;;1.02;0.80;;;24.00;61.80;;;;;;5072575;28;20032;-80
2023/07/12 02:21:13;;;;;;;1.75;1.33;;;24.00;61.90;;;;;;5072176;28;20055;-82
2023/07/12 02:23:39;;;;;;;1.70;1.40;;;24.00;61.90;;;;;;5072591;28;20056;-83
2023/07/12 02:26:05;;;;;;;1.63;0.98;;;23.90;61.90;;;;;;5071892;28;20042;-83
2023/07/12 02:28:31;;;;;;;1.33;1.02;;;23.90;62.00;;;;;;5072597;28;20062;-80
2023/07/12 02:31:17;;;;;;;1.02;0.52;;;23.80;62.10;;;;;;5071964;28;20025;-80
2023/07/12 02:33:43;;;;;;;0.60;0.55;;;23.70;62.00;;;;;;5072492;28;20402;-79
2023/07/12 02:36:09;;;;;;;1.88;1.58;;;23.70;62.50;;;;;;5072146;28;20059;-83
2023/07/12 02:38:35;;;;;;;1.60;1.02;;;23.60;62.30;;;;;;5071312;28;20040;-82
2023/07/12 02:41:02;;;;;;;1.92;1.17;;;23.60;62.20;;;;;;5072880;28;20032;-82
2023/07/12 02:43:28;;;;;;;1.15;0.70;;;23.70;62.10;;;;;;5072445;28;20075;-82
2023/07/12 02:45:54;;;;;;;1.17;0.70;;;23.70;62.10;;;;;;5071711;28;20029;-80
2023/07/12 02:48:19;;;;;;;;;;;23.70;62.10;;;;;;5072537;28;20032;-82
2023/07/12 02:50:46;;;;;;;1.60;0.80;;;23.70;61.80;;;;;;5071818;28;19912;-80
2023/07/12 02:53:33;;;;;;;0.98;0.60;;;23.70;62.00;;;;;;5071992;28;20032;-81
2023/07/12 02:55:59;;;;;;;1.52;0.88;;;23.70;61.80;;;;;;5071770;28;20052;-80
2023/07/12 02:58:25;;;;;;;;;;;23.70;61.90;;;;;;5056092;28;20040;-79
2023/07/12 03:00:57;;;;;;;4.30;1.38;;;23.70;61.80;;;;;;5054968;28;19912;-82
2023/07/12 03:03:23;;;;;;;1.33;0.70;;;23.60;62.00;;;;;;5071746;28;20119;-80
2023/07/12 03:05:49;;;;;;;0.65;0.55;;;23.60;61.70;;;;;;5071394;28;20531;-82
2023/07/12 03:08:15;;;;;;;1.52;0.98;;;23.70;62.50;;;;;;5071611;28;20033;-80
2023/07/12 03:10:41;;;;;;;;;;;23.60;62.40;;;;;;5055186;28;20094;-83
2023/07/12 03:13:09;;;;;;;0.85;0.65;;;23.60;62.20;;;;;;5055030;28;19950;-82
2023/07/12 03:15:55;;;;;;;2.13;1.80;;;23.60;62.30;;;;;;5071360;28;20059;-81
2023/07/12 03:18:21;;;;;;;1.80;1.13;;;23.60;62.60;;;;;;5071593;28;20037;-82
2023/07/12 03:20:48;;;;;;;1.20;0.75;;;23.60;62.60;;;;;;5071293;28;20032;-82
2023/07/12 03:23:14;;;;;;;0.95;0.55;;;23.60;62.60;;;;;;5073224;28;20557;-79
2023/07/12 03:25:45;;;;;;;1.10;0.60;;;23.70;62.70;;;;;;5054665;28;20074;-81
2023/07/12 03:28:11;;;;;;;3.72;1.55;;;23.70;62.50;;;;;;5054501;28;20113;-80
2023/07/12 03:30:37;;;;;;;0.85;0.55;;;23.70;62.70;;;;;;5071001;28;20029;-80
2023/07/12 03:33:03;;;;;;;;;;;23.70;62.90;;;;;;5071836;28;20044;-80
2023/07/12 03:35:29;;;;;;;1.50;0.53;;;23.60;62.60;;;;;;5054450;28;19921;-83
2023/07/12 03:37:55;;;;;;;;;;;23.60;62.70;;;;;;5072038;28;20040;-81
2023/07/12 03:40:21;;;;;;;1.23;0.60;;;23.70;62.70;;;;;;5054501;28;19913;-82
2023/07/12 03:42:47;;;;;;;1.27;0.90;;;23.70;62.90;;;;;;5072835;28;20039;-83
2023/07/12 03:45:13;;;;;;;;;;;23.70;63.00;;;;;;5072911;28;20507;-81
2023/07/12 03:47:39;;;;;;;1.40;0.93;;;23.70;62.80;;;;;;5054707;28;19958;-82
2023/07/12 03:50:06;;;;;;;;;;;23.60;62.70;;;;;;5072848;28;20108;-83
2023/07/12 03:52:32;;;;;;;1.57;1.20;;;23.70;62.30;;;;;;5075273;28;19966;-83
2023/07/12 03:54:57;;;;;;;;;;;23.60;62.90;;;;;;5059499;28;20036;-79
2023/07/12 03:57:23;;;;;;;2.15;1.55;;;23.60;63.00;;;;;;5057820;28;20015;-83
2023/07/12 03:59:49;;;;;;;;;;;23.50;63.30;;;;;;5077186;28;20035;-83
2023/07/12 04:02:15;;;;;;;0.93;0.68;;;23.50;63.10;;;;;;5074816;28;19938;-80
2023/07/12 04:04:41;;;;;;;;;;;23.50;63.50;;;;;;5077020;28;20433;-83
2023/07/12 04:07:08;;;;;;;5.47;1.10;;;23.50;63.40;;;;;;5058067;28;20011;-79
2023/07/12 04:09:34;;;;;;;1.15;0.80;;;23.50;63.90;;;;;;5058387;28;20063;-84
2023/07/12 04:12:00;;;;;;;;;;;23.40;64.30;;;;;;5076139;28;20037;-79
2023/07/12 04:14:26;;;;;;;1.08;0.80;;;23.40;64.50;;;;;;5076260;28;19912;-80
2023/07/12 04:16:52;;;;;;;;;;;23.30;65.00;;;;;;5074764;28;20056;-82
2023/07/12 04:19:18;;;;;;;0.70;0.70;;;23.30;65.60;;;;;;5074692;28;19999;-81
2023/07/12 04:21:44;;;;;;;;;;;23.20;65.00;;;;;;5057970;28;20407;-82
2023/07/12 04:24:10;;;;;;;2.25;1.40;;;23.10;65.80;;;;;;5074466;28;19912;-76
2023/07/12 04:26:37;;;;;;;;;;;23.00;66.40;;;;;;5057587;28;20048;-76
2023/07/12 04:29:03;;;;;;;2.05;1.17;;;23.00;66.70;;;;;;5063268;28;19920;-79
2023/07/12 04:31:29;;;;;;;0.57;0.40;;;23.10;60.20;;;;;;5054019;28;20029;-81
2023/07/12 04:33:55;;;;;;;;;;;23.60;56.20;;;;;;5055258;28;20060;-81
2023/07/12 04:36:21;;;;;;;1.95;1.08;;;24.00;55.30;;;;;;5055299;28;19999;-83
2023/07/12 04:38:47;;;;;;;0.68;0.32;;;24.20;52.70;;;;;;5054443;28;20437;-86
2023/07/12 04:41:13;;;;;;;0.30;0.30;;;24.50;51.50;;;;;;5037724;28;20064;-88
2023/07/12 04:43:39;;;;;;;0.40;0.30;;;24.70;51.20;;;;;;5038157;28;20044;-85
2023/07/12 04:46:05;;;;;;;;;;;24.70;51.90;;;;;;5054787;28;20485;-76
2023/07/12 04:48:33;;;;;;;2.63;1.40;;;24.50;54.20;;;;;;5054803;28;19920;-80
2023/07/12 04:51:00;;;;;;;0.30;0.30;;;24.30;56.10;;;;;;5053963;28;20036;-85
2023/07/12 04:53:26;;;;;;;0.30;0.30;;;24.10;56.30;;;;;;5054763;28;20452;-79
2023/07/12 04:55:54;;;;;;;0.30;0.30;;;24.10;56.40;;;;;;5054027;28;20025;-79
2023/07/12 04:58:21;;;;;;;0.10;0.10;;;24.20;56.20;;;;;;5038141;28;20073;-84
2023/07/12 05:00:47;;;;;;;0.88;0.88;;;24.10;53.60;;;;;;5053999;28;20383;-86
2023/07/12 05:03:15;;;;;;;0.30;0.30;;;24.20;53.70;;;;;;5053635;28;20547;-85
2023/07/12 05:05:41;;;;;;;0.22;0.22;;;24.20;53.10;;;;;;5053708;28;20028;-80
2023/07/12 05:08:08;;;;;;;0.43;0.43;;;24.20;54.00;;;;;;5054099;28;20063;-79
2023/07/12 05:10:34;;;;;;;0.38;0.38;;;24.20;54.50;;;;;;5037266;28;20040;-83
2023/07/12 05:13:00;;;;;;;0.10;0.10;;;24.10;54.50;;;;;;5054096;28;20035;-83
2023/07/12 05:15:26;;;;;;;0.22;0.20;;;24.10;54.60;;;;;;5036888;28;20041;-86
2023/07/12 05:17:52;;;;;;;0.43;0.35;;;24.10;54.90;;;;;;5054345;28;20033;-87
2023/07/12 05:20:18;;;;;;;0.13;0.13;;;24.00;55.40;;;;;;5053748;28;20367;-84
2023/07/12 05:22:47;;;;;;;0.55;0.45;;;23.80;56.70;;;;;;5054052;28;20171;-76
2023/07/12 05:25:14;;;;;;;0.30;0.30;;;23.60;61.80;;;;;;5054628;28;20033;-77
2023/07/12 05:27:40;;;;;;;0.73;0.68;;;23.30;63.50;;;;;;5053486;28;20056;-86
2023/07/12 05:30:07;;;;;;;0.52;0.30;;;22.90;66.40;;;;;;5037301;28;20386;-83
2023/07/12 05:32:33;;;;;;;0.20;0.20;;;22.40;69.10;;;;;;5053466;28;20041;-78
2023/07/12 05:34:59;;;;;;;;;;;22.20;71.20;;;;;;5054292;28;20470;-78
2023/07/12 05:37:25;;;;;;;0.25;0.25;;;22.00;71.00;;;;;;5036385;28;19921;-80
2023/07/12 05:39:51;;;;;;;;;;;21.80;72.90;;;;;;5054477;28;20405;-86
2023/07/12 05:42:17;;;;;;;0.28;0.20;;;21.60;73.10;;;;;;5052990;28;20011;-79
2023/07/12 05:44:43;;;;;;;;;;;21.60;75.00;;;;;;5037778;28;20029;-83
2023/07/12 05:47:09;;;;;;;0.70;0.45;;;21.50;74.00;;;;;;5053115;28;20003;-84
2023/07/12 05:49:35;;;;;;;0.30;0.20;;;21.50;75.00;;;;;;5053845;28;20500;-80
2023/07/12 05:52:01;;;;;;;4.15;0.85;;;21.50;75.20;;;;;;5053065;28;20045;-84
2023/07/12 05:54:29;;;;;;;;;;;21.40;75.70;;;;;;5054661;28;20501;-82
2023/07/12 05:56:55;;;;;;;0.10;0.10;;;21.50;74.80;;;;;;5053169;28;20232;-82
2023/07/12 05:59:22;;;;;;;;;;;21.60;75.20;;;;;;5054124;28;20474;-83
2023/07/12 06:01:48;;;;;;;0.47;0.47;;;21.60;74.20;;;;;;5052898;28;19921;-83
2023/07/12 06:04:14;;;;;;;;;;;21.70;74.50;;;;;;5053812;28;20037;-82
2023/07/12 06:06:41;;;;;;;0.20;0.20;;;21.70;74.40;;;;;;5052647;28;20289;-84
2023/07/12 06:09:07;;;;;;;0.75;0.50;;;21.70;74.60;;;;;;5054123;28;20043;-81
2023/07/12 06:11:33;;;;;;;0.47;0.30;;;21.70;74.70;;;;;;5052464;28;20063;-80
2023/07/12 06:14:00;;;;;;;;;;;21.80;74.40;;;;;;5054952;28;20025;-84
2023/07/12 06:16:26;;;;;;;0.77;0.73;;;21.80;74.40;;;;;;5052485;28;19936;-86
2023/07/12 06:18:52;;;;;;;;;;;21.70;75.20;;;;;;5053518;28;20083;-87
2023/07/12 06:21:18;;;;;;;0.30;0.22;;;21.70;75.20;;;;;;5053457;28;20007;-82
2023/07/12 06:23:43;;;;;;;;;;;21.80;75.50;;;;;;5053538;28;20033;-87
2023/07/12 06:26:10;;;;;;;0.45;0.40;;;21.70;75.10;;;;;;5052363;28;20002;-79
2023/07/12 06:28:36;;;;;;;0.20;0.20;;;21.80;74.60;;;;;;5052854;28;20041;-88
2023/07/12 06:31:02;;;;;;;;;;;21.90;75.60;;;;;;5052656;28;20029;-79
2023/07/12 06:33:28;;;;;;;0.35;0.35;;;21.90;74.20;;;;;;5053042;28;19974;-79
2023/07/12 06:35:54;;;;;;;;;;;22.00;74.70;;;;;;5052520;28;20025;-86
2023/07/12 06:38:21;;;;;;;2.20;0.40;;;22.00;74.80;;;;;;5052814;28;19965;-79
2023/07/12 06:40:47;;;;;;;0.20;0.20;;;22.00;75.60;;;;;;5052040;28;20025;-79
2023/07/12 06:43:13;;;;;;;;;;;22.00;76.40;;;;;;5053162;28;20033;-77
2023/07/12 06:45:39;;;;;;;0.38;0.30;;;22.00;76.20;;;;;;5052403;28;19928;-83
2023/07/12 06:48:05;;;;;;;;;;;22.00;76.40;;;;;;5036178;28;20089;-85
2023/07/12 06:50:31;;;;;;;0.28;0.28;;;22.10;75.60;;;;;;5053049;28;20258;-82
2023/07/12 06:52:57;;;;;;;;;;;22.20;75.30;;;;;;5052638;28;20037;-85
2023/07/12 06:55:23;;;;;;;0.30;0.30;;;22.20;74.50;;;;;;5051818;28;19917;-79
2023/07/12 06:57:49;;;;;;;;;;;22.30;74.90;;;;;;5053947;28;20033;-82
2023/07/12 07:00:15;;;;;;;0.90;0.55;;;22.40;74.40;;;;;;5052689;28;19999;-79
2023/07/12 07:02:41;;;;;;;2.20;0.63;;;22.50;73.40;;;;;;5052104;28;20033;-79
2023/07/12 07:05:07;;;;;;;;;;;22.60;73.50;;;;;;5052048;28;20045;-82
2023/07/12 07:07:33;;;;;;;0.43;0.20;;;22.80;73.00;;;;;;5051704;28;19940;-83
2023/07/12 07:09:59;;;;;;;0.20;0.20;;;23.00;72.50;;;;;;5051941;28;20044;-81
2023/07/12 07:12:25;;;;;;;;;;;23.10;72.30;;;;;;5051462;28;20490;-81
2023/07/12 07:14:52;;;;;;;0.82;0.40;;;23.20;72.10;;;;;;5051729;28;19956;-79
2023/07/12 07:17:18;;;;;;;0.10;0.10;;;23.30;72.10;;;;;;5051272;28;20037;-85
2023/07/12 07:19:44;;;;;;;;;;;23.30;72.70;;;;;;5052507;28;20033;-81
2023/07/12 07:22:10;;;;;;;0.10;0.10;;;23.20;72.20;;;;;;5034675;28;20316;-83
2023/07/12 07:24:36;;;;;;;;;;;23.20;72.10;;;;;;5053127;28;20087;-83
2023/07/12 07:27:02;;;;;;;0.63;0.32;;;23.30;72.00;;;;;;5050810;28;19925;-80
2023/07/12 07:29:28;;;;;;;;;;;23.40;70.90;;;;;;5052472;28;20033;-84
2023/07/12 07:31:54;;;;;;;0.20;0.20;;;23.60;70.60;;;;;;5051495;28;19925;-83
2023/07/12 07:34:20;;;;;;;0.65;0.30;;;23.90;70.30;;;;;;5035371;28;20029;-81
2023/07/12 07:36:47;;;;;;;0.15;0.15;;;23.90;70.80;;;;;;5052241;28;20036;-80
2023/07/12 07:39:13;;;;;;;;;;;24.00;71.00;;;;;;5052257;28;20040;-78
2023/07/12 07:41:39;;;;;;;0.90;0.70;;;24.10;70.50;;;;;;5050946;28;20293;-81
2023/07/12 07:44:05;;;;;;;1.23;1.13;;;24.20;69.40;;;;;;5034953;28;20098;-79
2023/07/12 07:46:31;;;;;;;10.38;1.55;;;24.40;68.60;;;;;;5052396;28;20424;-80
2023/07/12 07:48:57;;;;;;;;;;;24.30;65.80;;;;;;5035338;28;20032;-79
2023/07/12 07:51:27;;;;;;;0.40;0.25;;;24.40;66.50;;;;;;5051668;28;20015;-85
2023/07/12 07:53:53;;;;;;;0.10;0.10;;;24.50;66.50;;;;;;5072395;28;20033;-80
2023/07/12 07:56:20;;;;;;;0.85;0.65;;;24.70;66.40;;;;;;5054228;28;20029;-86
2023/07/12 07:58:46;;;;;;;0.32;0.20;;;25.10;64.80;;;;;;5054774;28;20040;-82
2023/07/12 08:01:12;;;;;;;0.40;0.40;;;25.50;63.70;;;;;;5071259;28;20060;-80
2023/07/12 08:03:39;;;;;;;0.10;0.10;;;25.80;62.90;;;;;;5071788;28;20039;-85
2023/07/12 08:06:06;;;;;;;0.70;0.70;;;26.00;62.00;;;;;;5072586;28;20513;-88
2023/07/12 08:08:34;;;;;;;0.10;0.10;;;26.20;60.40;;;;;;5072440;28;20067;-87
2023/07/12 08:11:05;;;;;;;0.20;0.20;;;26.50;59.50;;;;;;5053959;28;20393;-89
2023/07/12 08:13:31;;;;;;;0.35;0.20;;;26.60;59.40;;;;;;5071797;28;20488;-84
2023/07/12 08:15:57;;;;;;;0.40;0.40;;;26.90;59.30;;;;;;5054292;28;20489;-84
2023/07/12 08:18:23;;;;;;;0.20;0.20;;;27.30;59.10;;;;;;5054344;28;20035;-80
2023/07/12 08:20:54;;;;;;;0.32;0.30;;;27.60;57.70;;;;;;5070601;28;20039;-79
2023/07/12 08:23:21;;;;;;;0.20;0.20;;;28.00;57.80;;;;;;5054796;28;20127;-79
2023/07/12 08:26:07;;;;;;;0.40;0.35;;;28.20;56.90;;;;;;5071122;28;20094;-88
2023/07/12 08:28:33;;;;;;;0.93;0.75;;;28.60;56.20;;;;;;5071036;28;20063;-79
2023/07/12 08:30:59;;;;;;;0.32;0.25;;;28.80;53.90;;;;;;5054122;28;20036;-84
2023/07/12 08:33:25;;;;;;;1.48;1.15;;;28.90;52.80;;;;;;5071320;28;20094;-84
2023/07/12 08:35:51;;;;;;;0.20;0.20;;;29.10;52.70;;;;;;5054358;28;20035;-85
2023/07/12 08:38:18;;;;;;;0.88;0.50;;;29.30;50.40;;;;;;5057487;28;20394;-80
2023/07/12 08:41:12;;;;;;;0.13;0.13;;;29.60;50.50;;;;;;5057648;28;20039;-79
2023/07/12 08:43:38;;;;;;;0.30;0.30;;;29.80;48.70;;;;;;5058287;28;20055;-81
2023/07/12 08:46:26;;;;;;;0.57;0.50;;;30.20;48.70;;;;;;5074364;28;20024;-79
2023/07/12 08:49:15;;;;;;;0.30;0.30;;;30.40;46.60;;;;;;5074524;28;20534;-81
2023/07/12 08:51:42;;;;;;;0.25;0.25;;;30.70;46.20;;;;;;5057151;28;20043;-83
2023/07/12 08:57:33;;;;;;;2.05;0.98;;;31.00;43.40;;;;;;5074094;28;20392;-80
2023/07/12 09:00:21;;;;;;;0.52;0.52;;;31.00;42.60;;;;;;5074452;28;20032;-80
2023/07/12 09:02:47;;;;;;;0.80;0.52;;;31.00;41.90;;;;;;5074380;28;20048;-84
2023/07/12 09:05:33;;;;;;;0.30;0.30;;;31.00;42.40;;;;;;5074983;28;20032;-82
2023/07/12 09:08:39;;;;;;;0.43;0.43;;;31.00;43.30;;;;;;5074222;28;20487;-83
2023/07/12 09:11:32;;;;;;;0.30;0.30;;;31.10;43.10;;;;;;5073525;28;20048;-80
2023/07/12 09:13:58;;;;;;;0.20;0.20;;;31.20;42.90;;;;;;5073924;28;20094;-83
2023/07/12 09:16:47;;;;;;;0.30;0.30;;;31.20;42.70;;;;;;5073302;28;20068;-82
2023/07/12 09:19:19;;;;;;;0.45;0.40;;;31.20;43.00;;;;;;5073956;28;20031;-81
2023/07/12 09:22:23;;;;;;;1.95;1.30;;;31.30;41.20;;;;;;5074635;28;20039;-80
2023/07/12 09:24:55;;;;;;;0.70;0.70;;;31.70;40.20;;;;;;5073819;28;20052;-79
2023/07/12 09:27:26;;;;;;;3.00;1.60;;;32.10;40.50;;;;;;5072977;28;20053;-79
2023/07/12 09:30:11;;;;;;;1.13;0.38;;;32.60;40.40;;;;;;5057204;28;20032;-83
2023/07/12 09:32:41;;;;;;;0.40;0.40;;;33.50;39.90;;;;;;5056750;28;20494;-80
2023/07/12 09:35:45;;;;;;;0.40;0.40;;;33.80;39.30;;;;;;5074555;28;20032;-80
2023/07/12 09:38:36;;;;;;;0.30;0.30;;;34.10;39.30;;;;;;5072913;28;20044;-80
2023/07/12 09:41:15;;;;;;;0.40;0.40;;;34.10;38.90;;;;;;5055954;28;20485;-83
2023/07/12 09:43:46;;;;;;;3.00;0.70;;;34.90;37.60;;;;;;5073814;28;20090;-80
2023/07/12 09:46:49;;;;;;;0.20;0.20;;;35.60;35.10;;;;;;5073672;28;20056;-79
2023/07/12 09:50:12;;;;;;;0.35;0.35;;;36.10;33.10;;;;;;5073016;28;20497;-80
2023/07/12 09:53:34;;;;;;;0.30;0.30;;;36.60;33.50;;;;;;5074584;28;20040;-85
2023/07/12 09:56:21;;;;;;;0.40;0.40;;;37.00;31.80;;;;;;5072766;28;20492;-80
2023/07/12 09:59:06;;;;;;;1.10;0.60;;;37.40;32.00;;;;;;5074323;28;20043;-84
2023/07/12 10:01:47;;;;;;;0.75;0.63;;;37.70;31.60;;;;;;5073473;28;20025;-79
2023/07/12 10:04:44;;;;;;;0.47;0.47;;;37.50;31.40;;;;;;5073559;28;20051;-79
2023/07/12 10:07:55;;;;;;;1.25;0.65;;;37.10;32.30;;;;;;5055676;28;20094;-84
2023/07/12 10:10:39;;;;;;;0.68;0.68;;;37.40;30.60;;;;;;5073740;28;20036;-86
2023/07/12 10:13:45;;;;;;;0.63;0.40;;;37.20;31.40;;;;;;5072847;28;20467;-79
2023/07/12 10:16:35;;;;;;;0.40;0.40;;;36.90;31.10;;;;;;5055594;28;20035;-85
2023/07/12 10:19:14;;;;;;;0.47;0.47;;;37.50;30.70;;;;;;5073035;28;20039;-86
2023/07/12 10:21:40;;;;;;;0.43;0.43;;;38.60;29.50;;;;;;5072422;28;20048;-80
2023/07/12 10:24:15;;;;;;;0.40;0.40;;;39.80;28.00;;;;;;5055976;28;20021;-80
2023/07/12 10:26:43;;;;;;;0.40;0.40;;;40.80;27.70;;;;;;5071831;28;20222;-86
2023/07/12 10:29:51;;;;;;;0.55;0.55;;;41.70;27.00;;;;;;5072770;28;20123;-87
2023/07/12 10:32:44;;;;;;;1.08;0.98;;;42.90;25.00;;;;;;5072139;28;20140;-79
2023/07/12 10:35:47;;;;;;;0.60;0.60;;;43.40;23.30;;;;;;5039053;28;20040;-84
2023/07/12 10:38:18;;;;;;;3.13;1.13;;;42.60;24.60;;;;;;5073669;28;20036;-79
2023/07/12 10:41:26;;;;;;;0.57;0.57;;;42.30;24.30;;;;;;5071522;28;20473;-79
2023/07/12 10:44:34;;;;;;;0.60;0.60;;;42.50;24.50;;;;;;5072255;28;20123;-84
2023/07/12 10:47:07;;;;;;;0.73;0.73;;;42.20;25.30;;;;;;5071687;28;20075;-85
2023/07/12 10:50:15;;;;;;;0.80;0.80;;;43.20;23.80;;;;;;5072029;28;20039;-84
2023/07/12 10:53:11;;;;;;;0.90;0.77;;;42.90;23.70;;;;;;5073263;28;20457;-86
2023/07/12 10:55:42;;;;;;;1.77;1.23;;;41.90;24.90;;;;;;5071494;28;20033;-78
2023/07/12 10:58:20;;;;;;;0.95;0.80;;;41.10;25.80;;;;;;5071760;28;20043;-83
2023/07/12 11:00:59;;;;;;;0.80;0.80;;;40.20;26.40;;;;;;5070603;28;20032;-84
2023/07/12 11:06:33;;;;;;;2.58;1.77;;;40.00;27.60;;;;;;5071420;28;20043;-79
2023/07/12 11:08:59;;;;;;;0.65;0.52;;;41.10;26.50;;;;;;5071969;28;20032;-85
2023/07/12 11:11:44;;;;;;;1.38;0.73;;;41.50;26.00;;;;;;5071200;28;20161;-85
2023/07/12 11:14:48;;;;;;;;;;;42.50;25.00;;;;;;5073767;28;20086;-77
2023/07/12 11:17:51;;;;;;;1.83;1.38;;;43.80;23.70;;;;;;5070855;28;20425;-78
2023/07/12 11:21:14;;;;;;;1.13;1.00;;;44.80;20.90;;;;;;5072542;28;20496;-79
2023/07/12 11:23:49;;;;;;;3.20;1.70;;;45.80;19.70;;;;;;5071646;28;20433;-83
2023/07/12 11:26:41;;;;;;;2.20;1.40;;;45.80;18.00;;;;;;5070762;28;20162;-84
2023/07/12 11:29:46;;;;;;;0.60;0.60;;;45.80;18.50;;;;;;5054215;28;20472;-84
2023/07/12 11:32:34;;;;;;;2.63;0.87;;;45.70;18.10;;;;;;5054530;28;20045;-78
2023/07/12 11:35:12;;;;;;;1.15;1.05;;;45.50;18.20;;;;;;5071222;28;20460;-76
2023/07/12 11:37:44;;;;;;;0.90;0.80;;;45.60;17.80;;;;;;5054880;28;20305;-82
2023/07/12 11:40:31;;;;;;;0.90;0.90;;;45.00;18.30;;;;;;5070679;28;20025;-80
2023/07/12 11:43:37;;;;;;;0.90;0.88;;;44.70;18.50;;;;;;5071280;28;20440;-84
2023/07/12 11:46:18;;;;;;;1.17;1.08;;;43.80;19.30;;;;;;5072172;28;20042;-81
2023/07/12 11:48:51;;;;;;;0.68;0.68;;;43.50;19.70;;;;;;5054668;28;20489;-79
2023/07/12 11:51:39;;;;;;;2.65;1.13;;;43.60;19.60;;;;;;5053860;28;20063;-83
2023/07/12 11:54:42;;;;;;;1.20;0.93;;;43.50;19.80;;;;;;5071165;28;20037;-79
2023/07/12 11:57:27;;;;;;;1.17;1.00;;;43.30;19.90;;;;;;5054197;28;20043;-79
2023/07/12 11:59:53;;;;;;;0.70;0.70;;;42.90;20.40;;;;;;5071159;28;20028;-78
2023/07/12 12:02:22;;;;;;;1.48;1.30;;;42.70;20.60;;;;;;5053713;28;20457;-84
2023/07/12 12:04:56;;;;;;;1.52;1.25;;;42.60;20.80;;;;;;5071173;28;20021;-78
2023/07/12 12:07:41;;;;;;;1.10;0.68;;;42.00;20.90;;;;;;5070633;28;20051;-76
2023/07/12 12:13:19;;;;;;;0.60;0.60;;;40.60;21.30;;;;;;5075243;28;20481;-79
2023/07/12 12:16:04;;;;;;;0.80;0.80;;;40.20;22.50;;;;;;5074425;28;20145;-84
2023/07/12 12:18:30;;;;;;;1.10;1.00;;;39.90;22.20;;;;;;5075127;28;20036;-87
2023/07/12 12:21:17;;;;;;;0.50;0.50;;;39.60;23.10;;;;;;5057697;28;20040;-78
2023/07/12 12:24:20;;;;;;;0.50;0.50;;;39.40;23.10;;;;;;5058410;28;20452;-79
2023/07/12 12:26:50;;;;;;;0.85;0.50;;;39.30;23.90;;;;;;5057299;28;20106;-79
2023/07/12 12:29:34;;;;;;;1.50;1.10;;;38.90;23.90;;;;;;5075035;28;20447;-79
2023/07/12 12:32:03;;;;;;;0.60;0.60;;;38.80;24.40;;;;;;5075763;28;20119;-85
2023/07/12 12:34:52;;;;;;;0.50;0.50;;;38.60;24.50;;;;;;5074998;28;20040;-79
2023/07/12 12:37:39;;;;;;;1.35;1.05;;;38.60;25.10;;;;;;5074525;28;20025;-85
2023/07/12 12:40:20;;;;;;;1.38;0.60;;;38.20;24.80;;;;;;5074511;28;20071;-79
2023/07/12 12:43:05;;;;;;;1.15;1.05;;;38.10;25.80;;;;;;5074612;28;20040;-84
2023/07/12 12:45:50;;;;;;;0.77;0.63;;;37.70;25.80;;;;;;5074205;28;20059;-79
2023/07/12 12:48:16;;;;;;;1.45;1.35;;;37.40;26.50;;;;;;5057961;28;20511;-78
2023/07/12 12:50:42;;;;;;;0.43;0.43;;;37.60;26.60;;;;;;5075372;28;20082;-83
2023/07/12 12:53:27;;;;;;;0.40;0.40;;;38.30;26.30;;;;;;5057764;28;20036;-87
2023/07/12 12:55:53;;;;;;;0.85;0.80;;;39.10;25.90;;;;;;5075137;28;20424;-85
2023/07/12 12:58:19;;;;;;;0.65;0.65;;;40.10;24.70;;;;;;5057872;28;20493;-88
2023/07/12 13:00:46;;;;;;;0.75;0.75;;;41.00;23.70;;;;;;5057233;28;20477;-87
2023/07/12 13:03:14;;;;;;;0.45;0.45;;;42.00;22.20;;;;;;5057625;28;20436;-86
2023/07/12 13:05:40;;;;;;;0.60;0.60;;;42.80;20.40;;;;;;5075166;28;20039;-87
2023/07/12 13:08:19;;;;;;;0.73;0.73;;;43.30;20.40;;;;;;5074255;28;20131;-79
2023/07/12 13:10:45;;;;;;;0.60;0.60;;;43.80;19.60;;;;;;5057505;28;20032;-78
2023/07/12 13:13:30;;;;;;;0.90;0.60;;;44.20;19.80;;;;;;5057626;28;20524;-86
2023/07/12 13:15:56;;;;;;;0.50;0.50;;;44.30;19.40;;;;;;5073596;28;20028;-77
2023/07/12 13:18:25;;;;;;;4.45;1.33;;;44.10;20.00;;;;;;5073954;28;20037;-79
2023/07/12 13:20:52;;;;;;;0.80;0.80;;;43.90;18.90;;;;;;5073284;28;20077;-79
2023/07/12 13:23:23;;;;;;;1.10;0.75;;;44.00;19.90;;;;;;5072449;28;20040;-89
2023/07/12 13:25:51;;;;;;;1.38;1.05;;;43.70;18.90;;;;;;5056747;28;20198;-84
2023/07/12 13:28:17;;;;;;;2.22;1.35;;;43.50;19.20;;;;;;5057032;28;20049;-78
2023/07/12 13:30:43;;;;;;;1.67;1.48;;;43.50;20.00;;;;;;5072768;28;20493;-77
2023/07/12 13:33:13;;;;;;;1.42;1.20;;;42.90;20.80;;;;;;5073426;28;20249;-78
2023/07/12 13:35:40;;;;;;;0.50;0.50;;;41.80;21.30;;;;;;5056691;28;20409;-79